createdAt,value
2018-09-29T00:00:55.305Z,99.90
2018-09-29T00:03:23.427Z,99.90
2018-09-29T00:05:51.544Z,99.90
2018-09-29T00:08:19.664Z,99.90
2018-09-29T00:10:47.781Z,99.90
2018-09-29T00:13:15.907Z,99.90
2018-09-29T00:15:44.025Z,99.90
2018-09-29T00:18:12.165Z,99.90
2018-09-29T00:20:40.278Z,99.90
2018-09-29T00:23:08.402Z,99.90
2018-09-29T00:25:36.523Z,99.90
2018-09-29T00:28:04.937Z,99.90
2018-09-29T00:30:33.078Z,99.90
2018-09-29T00:33:01.222Z,99.90
2018-09-29T00:35:29.337Z,99.90
2018-09-29T00:37:57.458Z,99.90
2018-09-29T00:40:25.595Z,99.90
2018-09-29T00:42:53.779Z,99.90
2018-09-29T00:45:21.978Z,99.90
2018-09-29T00:47:50.095Z,99.90
2018-09-29T00:50:18.218Z,99.90
2018-09-29T00:52:46.343Z,99.90
2018-09-29T00:55:14.474Z,99.90
2018-09-29T00:57:42.590Z,99.90
2018-09-29T01:00:10.709Z,99.90
2018-09-29T01:02:38.831Z,99.90
2018-09-29T01:05:06.955Z,99.90
2018-09-29T01:07:35.070Z,99.90
2018-09-29T01:10:03.203Z,99.90
2018-09-29T01:12:31.322Z,99.90
2018-09-29T01:14:59.451Z,99.90
2018-09-29T01:17:27.571Z,99.90
2018-09-29T01:19:55.702Z,99.90
2018-09-29T01:22:23.819Z,99.90
2018-09-29T01:24:51.950Z,99.90
2018-09-29T01:27:20.067Z,99.90
2018-09-29T01:29:48.201Z,99.90
2018-09-29T01:32:16.437Z,99.90
2018-09-29T01:34:44.570Z,99.90
2018-09-29T01:37:12.695Z,99.90
2018-09-29T01:39:40.831Z,99.90
2018-09-29T01:42:08.953Z,99.90
2018-09-29T01:44:37.089Z,99.90
2018-09-29T01:47:05.218Z,99.90
2018-09-29T01:49:33.360Z,99.90
2018-09-29T01:52:01.486Z,99.90
2018-09-29T01:54:29.725Z,99.90
2018-09-29T01:56:57.863Z,99.90
2018-09-29T01:59:25.994Z,99.90
2018-09-29T02:01:54.119Z,99.90
2018-09-29T02:04:22.254Z,99.90
2018-09-29T02:06:50.374Z,99.90
2018-09-29T02:09:18.526Z,99.90
2018-09-29T02:11:46.634Z,99.90
2018-09-29T02:14:14.778Z,99.90
2018-09-29T02:16:42.914Z,99.90
2018-09-29T02:19:11.041Z,99.90
2018-09-29T02:21:39.166Z,99.90
2018-09-29T02:24:07.565Z,99.90
2018-09-29T02:26:35.698Z,99.90
2018-09-29T02:29:03.905Z,99.90
2018-09-29T02:31:31.975Z,99.90
2018-09-29T02:34:00.103Z,99.90
2018-09-29T02:36:28.231Z,99.90
2018-09-29T02:38:56.346Z,99.90
2018-09-29T02:41:24.470Z,99.90
2018-09-29T02:43:52.592Z,99.90
2018-09-29T02:46:20.714Z,99.90
2018-09-29T02:48:48.832Z,99.90
2018-09-29T02:51:16.965Z,99.90
2018-09-29T02:53:45.093Z,99.90
2018-09-29T02:56:13.214Z,99.90
2018-09-29T02:58:41.330Z,99.90
2018-09-29T03:01:09.458Z,99.90
2018-09-29T03:03:37.579Z,99.90
2018-09-29T03:06:05.711Z,99.90
2018-09-29T03:08:33.830Z,99.90
2018-09-29T03:11:01.954Z,99.90
2018-09-29T03:13:30.083Z,99.90
2018-09-29T03:15:58.303Z,99.90
2018-09-29T03:18:26.411Z,99.90
2018-09-29T03:20:54.537Z,99.90
2018-09-29T03:23:22.653Z,99.90
2018-09-29T03:25:50.786Z,99.90
2018-09-29T03:28:18.902Z,99.90
2018-09-29T03:30:47.073Z,99.90
2018-09-29T03:33:15.187Z,99.90
2018-09-29T03:35:43.316Z,99.90
2018-09-29T03:38:11.530Z,99.90
2018-09-29T03:40:39.668Z,99.90
2018-09-29T03:43:07.826Z,99.90
2018-09-29T03:45:35.954Z,99.90
2018-09-29T03:48:04.101Z,99.90
2018-09-29T03:50:32.213Z,99.90
2018-09-29T03:53:00.330Z,99.90
2018-09-29T03:55:28.594Z,99.90
2018-09-29T03:57:56.718Z,99.90
2018-09-29T04:00:24.847Z,99.90
2018-09-29T04:02:52.965Z,99.90
2018-09-29T04:05:21.142Z,99.90
2018-09-29T04:07:49.242Z,99.90
2018-09-29T04:10:17.446Z,99.90
2018-09-29T04:12:45.576Z,99.90
2018-09-29T04:15:13.691Z,99.90
2018-09-29T04:17:41.819Z,99.90
2018-09-29T04:20:09.938Z,99.90
2018-09-29T04:22:38.098Z,99.90
2018-09-29T04:25:06.337Z,99.90
2018-09-29T04:27:34.457Z,99.90
2018-09-29T04:30:02.590Z,99.90
2018-09-29T04:32:30.763Z,99.90
2018-09-29T04:34:58.911Z,99.90
2018-09-29T04:37:27.073Z,99.90
2018-09-29T04:39:55.277Z,99.90
2018-09-29T04:42:23.411Z,99.90
2018-09-29T04:44:51.530Z,99.90
2018-09-29T04:47:19.667Z,99.90
2018-09-29T04:49:47.790Z,99.90
2018-09-29T04:52:15.928Z,99.90
2018-09-29T04:54:44.128Z,99.90
2018-09-29T04:57:12.271Z,99.90
2018-09-29T04:59:40.395Z,99.90
2018-09-29T05:02:08.530Z,99.90
2018-09-29T05:04:36.654Z,99.90
2018-09-29T05:07:04.785Z,99.90
2018-09-29T05:09:32.917Z,99.90
2018-09-29T05:12:01.058Z,99.90
2018-09-29T05:14:29.178Z,99.90
2018-09-29T05:16:57.337Z,99.90
2018-09-29T05:19:25.454Z,99.90
2018-09-29T05:21:53.626Z,99.90
2018-09-29T05:24:21.747Z,99.90
2018-09-29T05:26:49.881Z,99.90
2018-09-29T05:29:18.041Z,99.90
2018-09-29T05:31:46.178Z,99.90
2018-09-29T05:34:14.318Z,99.90
2018-09-29T05:36:42.439Z,99.90
2018-09-29T05:39:10.718Z,99.90
2018-09-29T05:41:38.853Z,99.90
2018-09-29T05:44:07.058Z,99.90
2018-09-29T05:46:35.179Z,99.90
2018-09-29T05:49:03.311Z,99.90
2018-09-29T05:51:31.710Z,99.90
2018-09-29T05:53:59.939Z,99.90
2018-09-29T05:56:27.962Z,99.90
2018-09-29T05:58:56.191Z,99.90
2018-09-29T06:01:24.294Z,99.90
2018-09-29T06:03:52.444Z,99.90
2018-09-29T06:06:20.541Z,99.90
2018-09-29T06:08:48.670Z,99.90
2018-09-29T06:11:16.790Z,99.90
2018-09-29T06:13:44.918Z,99.90
2018-09-29T06:16:13.032Z,99.90
2018-09-29T06:18:41.155Z,99.90
2018-09-29T06:21:09.272Z,99.90
2018-09-29T06:23:37.771Z,99.90
2018-09-29T06:26:05.935Z,99.90
2018-09-29T06:28:34.061Z,99.90
2018-09-29T06:31:02.179Z,99.90
2018-09-29T06:33:30.315Z,99.90
2018-09-29T06:35:58.438Z,99.90
2018-09-29T06:38:26.575Z,99.90
2018-09-29T06:40:54.772Z,99.90
2018-09-29T06:43:22.881Z,99.90
2018-09-29T06:45:51.110Z,99.90
2018-09-29T06:48:19.403Z,99.90
2018-09-29T06:50:47.514Z,99.90
2018-09-29T06:53:15.642Z,99.90
2018-09-29T06:55:43.759Z,99.90
2018-09-29T06:58:11.875Z,99.90
2018-09-29T07:00:40.010Z,99.90
2018-09-29T07:03:08.172Z,99.90
2018-09-29T07:05:36.269Z,99.90
2018-09-29T07:08:04.402Z,99.90
2018-09-29T07:10:32.575Z,99.90
2018-09-29T07:13:00.758Z,99.90
2018-09-29T07:15:28.895Z,99.90
2018-09-29T07:17:57.040Z,99.90
2018-09-29T07:20:25.182Z,99.90
2018-09-29T07:22:53.311Z,99.90
2018-09-29T07:25:21.535Z,99.90
2018-09-29T07:27:49.670Z,99.90
2018-09-29T07:30:17.791Z,99.90
2018-09-29T07:32:45.934Z,99.90
2018-09-29T07:35:14.078Z,99.90
2018-09-29T07:37:42.246Z,99.90
2018-09-29T07:40:10.399Z,99.90
2018-09-29T07:42:38.543Z,99.90
2018-09-29T07:45:06.684Z,99.90
2018-09-29T07:47:34.887Z,99.90
2018-09-29T07:50:03.067Z,99.90
2018-09-29T07:52:31.181Z,99.90
2018-09-29T07:54:59.603Z,99.90
2018-09-29T07:57:27.747Z,99.90
2018-09-29T07:59:55.891Z,99.90
2018-09-29T08:02:24.014Z,99.90
2018-09-29T08:04:52.156Z,99.90
2018-09-29T08:07:20.306Z,99.90
2018-09-29T08:09:48.482Z,99.90
2018-09-29T08:12:16.619Z,99.90
2018-09-29T08:14:44.757Z,99.90
2018-09-29T08:17:12.890Z,99.90
2018-09-29T08:19:41.022Z,99.90
2018-09-29T08:22:09.166Z,99.90
2018-09-29T08:24:37.404Z,99.90
2018-09-29T08:27:05.542Z,99.90
2018-09-29T08:29:33.666Z,99.90
2018-09-29T08:32:01.803Z,99.90
2018-09-29T08:34:29.955Z,99.90
2018-09-29T08:36:58.099Z,99.90
2018-09-29T08:39:26.269Z,99.90
2018-09-29T08:41:54.358Z,99.90
2018-09-29T08:44:22.490Z,99.90
2018-09-29T08:46:50.704Z,99.90
2018-09-29T08:49:18.758Z,99.90
2018-09-29T08:51:46.991Z,99.90
2018-09-29T08:54:15.107Z,99.90
2018-09-29T08:56:43.254Z,99.90
2018-09-29T08:59:11.382Z,99.90
2018-09-29T09:01:39.525Z,99.90
2018-09-29T09:04:07.734Z,99.90
2018-09-29T09:06:35.798Z,99.90
2018-09-29T09:09:05.426Z,99.90
2018-09-29T09:11:33.575Z,99.90
2018-09-29T09:14:01.705Z,99.90
2018-09-29T09:16:29.855Z,99.90
2018-09-29T09:18:57.983Z,99.90
2018-09-29T09:21:26.122Z,99.90
2018-09-29T09:23:54.311Z,99.90
2018-09-29T09:26:22.437Z,99.90
2018-09-29T09:28:50.560Z,99.90
2018-09-29T09:31:18.718Z,99.90
2018-09-29T09:33:46.871Z,99.90
2018-09-29T09:36:15.027Z,99.90
2018-09-29T09:38:43.289Z,99.90
2018-09-29T09:41:11.421Z,99.90
2018-09-29T09:43:39.638Z,99.90
2018-09-29T09:46:07.719Z,99.90
2018-09-29T09:48:35.858Z,99.90
2018-09-29T09:51:04.025Z,98.20
2018-09-29T09:53:32.146Z,98.60
2018-09-29T09:56:00.295Z,97.80
2018-09-29T09:58:28.432Z,99.10
2018-09-29T10:01:01.943Z,98.70
2018-09-29T10:03:31.786Z,97.80
2018-09-29T10:05:59.927Z,96.20
2018-09-29T10:08:28.247Z,98.70
2018-09-29T10:10:56.407Z,97.80
2018-09-29T10:13:24.554Z,96.80
2018-09-29T10:15:52.872Z,96.90
2018-09-29T10:18:21.023Z,96.20
2018-09-29T10:20:49.154Z,96.40
2018-09-29T10:23:17.299Z,94.90
2018-09-29T10:25:45.423Z,96.80
2018-09-29T10:28:13.572Z,97.00
2018-09-29T10:30:41.733Z,96.40
2018-09-29T10:33:09.881Z,94.60
2018-09-29T10:35:38.011Z,95.80
2018-09-29T10:38:06.171Z,93.50
2018-09-29T10:40:34.293Z,94.70
2018-09-29T10:43:02.439Z,95.20
2018-09-29T10:45:30.570Z,95.00
2018-09-29T10:47:58.709Z,95.20
2018-09-29T10:50:26.845Z,96.20
2018-09-29T10:52:55.078Z,95.40
2018-09-29T10:55:23.306Z,94.60
2018-09-29T10:57:51.449Z,95.70
2018-09-29T11:00:19.578Z,94.90
2018-09-29T11:02:47.777Z,96.10
2018-09-29T11:05:15.894Z,94.00
2018-09-29T11:07:44.058Z,96.10
2018-09-29T11:10:12.190Z,96.20
2018-09-29T11:12:40.345Z,96.80
2018-09-29T11:15:08.500Z,95.20
2018-09-29T11:17:36.676Z,95.10
2018-09-29T11:20:05.013Z,95.40
2018-09-29T11:22:33.170Z,96.20
2018-09-29T11:25:01.315Z,95.90
2018-09-29T11:27:29.454Z,94.80
2018-09-29T11:29:57.599Z,94.20
2018-09-29T11:32:25.749Z,93.80
2018-09-29T11:34:53.878Z,94.30
2018-09-29T11:37:22.003Z,94.70
2018-09-29T11:39:50.146Z,94.90
2018-09-29T11:42:18.258Z,95.30
2018-09-29T11:44:46.468Z,94.70
2018-09-29T11:47:14.534Z,93.60
2018-09-29T11:49:42.672Z,93.40
2018-09-29T11:52:10.794Z,94.70
2018-09-29T11:54:38.942Z,95.70
2018-09-29T11:57:07.072Z,96.20
2018-09-29T11:59:35.255Z,95.70
2018-09-29T12:02:03.441Z,94.40
2018-09-29T12:04:31.534Z,92.10
2018-09-29T12:06:59.683Z,93.10
2018-09-29T12:09:27.793Z,94.90
2018-09-29T12:11:55.919Z,93.00
2018-09-29T12:14:24.090Z,92.50
2018-09-29T12:16:52.217Z,95.00
2018-09-29T12:19:20.359Z,93.40
2018-09-29T12:21:48.482Z,92.10
2018-09-29T12:24:16.618Z,91.50
2018-09-29T12:26:44.763Z,92.60
2018-09-29T12:29:12.906Z,91.30
2018-09-29T12:31:41.022Z,93.00
2018-09-29T12:34:09.194Z,93.70
2018-09-29T12:36:37.316Z,92.30
2018-09-29T12:39:07.132Z,92.20
2018-09-29T12:41:35.254Z,95.60
2018-09-29T12:44:03.403Z,95.80
2018-09-29T12:46:31.547Z,94.90
2018-09-29T12:48:59.678Z,93.90
2018-09-29T12:51:27.824Z,92.90
2018-09-29T12:53:56.553Z,96.70
2018-09-29T12:56:25.030Z,93.50
2018-09-29T12:58:53.216Z,92.50
2018-09-29T13:01:21.300Z,93.80
2018-09-29T13:03:49.423Z,94.00
2018-09-29T13:06:17.556Z,92.60
2018-09-29T13:08:45.690Z,92.20
2018-09-29T13:11:13.810Z,93.70
2018-09-29T13:13:41.943Z,93.50
2018-09-29T13:16:10.087Z,96.50
2018-09-29T13:18:38.225Z,91.10
2018-09-29T13:21:06.361Z,90.70
2018-09-29T13:23:34.519Z,90.10
2018-09-29T13:26:02.875Z,86.20
2018-09-29T13:28:30.998Z,90.30
2018-09-29T13:30:59.137Z,90.60
2018-09-29T13:33:27.333Z,90.70
2018-09-29T13:35:55.516Z,89.80
2018-09-29T13:38:23.855Z,86.40
2018-09-29T13:40:52.011Z,88.80
2018-09-29T13:43:20.147Z,89.20
2018-09-29T13:45:48.332Z,87.50
2018-09-29T13:48:16.434Z,88.30
2018-09-29T13:50:44.578Z,90.50
2018-09-29T13:53:12.713Z,90.50
2018-09-29T13:55:40.867Z,90.30
2018-09-29T13:58:08.994Z,91.40
2018-09-29T14:00:37.186Z,90.50
2018-09-29T14:03:05.315Z,90.60
2018-09-29T14:05:33.478Z,91.00
2018-09-29T14:08:01.619Z,91.00
2018-09-29T14:10:29.765Z,90.90
2018-09-29T14:12:57.903Z,90.80
2018-09-29T14:15:26.107Z,90.70
2018-09-29T14:17:54.328Z,91.00
2018-09-29T14:20:22.453Z,90.50
2018-09-29T14:22:50.742Z,87.10
2018-09-29T14:25:18.882Z,84.30
2018-09-29T14:27:47.018Z,84.10
2018-09-29T14:30:15.286Z,86.00
2018-09-29T14:32:43.324Z,86.90
2018-09-29T14:35:11.454Z,87.70
2018-09-29T14:37:39.585Z,88.80
2018-09-29T14:40:07.723Z,89.90
2018-09-29T14:42:35.869Z,88.50
2018-09-29T14:45:04.278Z,89.80
2018-09-29T14:47:32.538Z,90.40
2018-09-29T14:50:00.667Z,89.10
2018-09-29T14:52:28.824Z,89.80
2018-09-29T14:54:56.946Z,88.60
2018-09-29T14:57:25.085Z,90.30
2018-09-29T14:59:53.262Z,90.00
2018-09-29T15:02:21.446Z,89.20
2018-09-29T15:04:49.570Z,87.90
2018-09-29T15:07:17.747Z,84.60
2018-09-29T15:09:45.879Z,87.50
2018-09-29T15:12:14.019Z,86.40
2018-09-29T15:14:42.154Z,88.90
2018-09-29T15:17:10.292Z,87.80
2018-09-29T15:19:38.422Z,87.30
2018-09-29T15:22:06.603Z,90.30
2018-09-29T15:24:34.735Z,89.30
2018-09-29T15:27:02.874Z,91.20
2018-09-29T15:29:31.002Z,90.50
2018-09-29T15:31:59.163Z,90.50
2018-09-29T15:34:27.297Z,91.10
2018-09-29T15:36:55.447Z,91.80
2018-09-29T15:39:23.583Z,92.40
2018-09-29T15:41:51.735Z,91.80
2018-09-29T15:44:19.874Z,90.70
2018-09-29T15:46:48.116Z,91.60
2018-09-29T15:49:16.246Z,90.80
2018-09-29T15:51:44.397Z,87.00
2018-09-29T15:54:12.526Z,88.50
2018-09-29T15:56:40.675Z,91.80
2018-09-29T15:59:08.798Z,93.10
2018-09-29T16:01:36.947Z,92.40
2018-09-29T16:04:05.081Z,92.60
2018-09-29T16:06:33.223Z,93.20
2018-09-29T16:09:01.446Z,93.60
2018-09-29T16:11:29.528Z,91.80
2018-09-29T16:13:57.659Z,93.60
2018-09-29T16:16:25.805Z,92.60
2018-09-29T16:18:53.968Z,94.20
2018-09-29T16:21:22.104Z,94.30
2018-09-29T16:23:50.273Z,94.20
2018-09-29T16:26:18.386Z,94.80
2018-09-29T16:28:46.603Z,95.40
2018-09-29T16:31:14.738Z,95.50
2018-09-29T16:33:42.897Z,95.70
2018-09-29T16:36:11.039Z,96.10
2018-09-29T16:38:39.173Z,96.90
2018-09-29T16:41:07.387Z,96.70
2018-09-29T16:43:35.717Z,96.30
2018-09-29T16:46:03.919Z,96.60
2018-09-29T16:48:32.070Z,96.70
2018-09-29T16:51:00.382Z,96.80
2018-09-29T16:53:28.558Z,97.30
2018-09-29T16:55:56.796Z,97.50
2018-09-29T16:58:24.937Z,97.70
2018-09-29T17:00:53.067Z,97.40
2018-09-29T17:03:21.270Z,97.00
2018-09-29T17:05:49.350Z,97.30
2018-09-29T17:08:17.499Z,98.10
2018-09-29T17:10:45.619Z,97.70
2018-09-29T17:13:13.769Z,97.60
2018-09-29T17:15:41.915Z,97.70
2018-09-29T17:18:10.908Z,97.80
2018-09-29T17:20:39.038Z,97.80
2018-09-29T17:23:07.226Z,97.90
2018-09-29T17:25:35.330Z,97.90
2018-09-29T17:28:03.490Z,98.20
2018-09-29T17:30:31.613Z,98.20
2018-09-29T17:32:59.774Z,98.30
2018-09-29T17:35:27.915Z,98.40
2018-09-29T17:37:56.030Z,98.50
2018-09-29T17:40:24.163Z,99.00
2018-09-29T17:42:52.365Z,98.60
2018-09-29T17:45:20.560Z,98.80
2018-09-29T17:47:48.650Z,98.70
2018-09-29T17:50:16.817Z,99.10
2018-09-29T17:52:45.009Z,99.10
2018-09-29T17:55:13.223Z,98.80
2018-09-29T17:57:41.360Z,99.30
2018-09-29T18:00:09.538Z,99.10
2018-09-29T18:02:37.666Z,99.10
2018-09-29T18:05:05.803Z,99.70
2018-09-29T18:07:33.929Z,99.90
2018-09-29T18:10:02.084Z,99.60
2018-09-29T18:12:30.578Z,99.90
2018-09-29T18:14:58.730Z,99.90
2018-09-29T18:17:26.859Z,99.90
2018-09-29T18:19:54.986Z,99.90
2018-09-29T18:22:23.122Z,99.90
2018-09-29T18:24:51.281Z,99.90
2018-09-29T18:27:19.418Z,99.90
2018-09-29T18:29:47.545Z,99.90
2018-09-29T18:32:15.666Z,99.90
2018-09-29T18:34:43.845Z,99.90
2018-09-29T18:37:12.035Z,99.90
2018-09-29T18:39:40.138Z,99.90
2018-09-29T18:42:08.289Z,99.90
2018-09-29T18:44:36.488Z,99.90
2018-09-29T18:47:04.586Z,99.90
2018-09-29T18:49:32.750Z,99.90
2018-09-29T18:52:00.891Z,99.90
2018-09-29T18:54:29.063Z,99.90
2018-09-29T18:56:57.218Z,99.90
2018-09-29T18:59:25.468Z,99.90
2018-09-29T19:01:53.610Z,99.90
2018-09-29T19:04:21.762Z,99.90
2018-09-29T19:06:49.914Z,99.90
2018-09-29T19:09:18.177Z,99.90
2018-09-29T19:11:46.348Z,99.90
2018-09-29T19:14:14.900Z,99.90
2018-09-29T19:16:43.289Z,99.90
2018-09-29T19:19:11.457Z,99.90
2018-09-29T19:21:39.642Z,99.90
2018-09-29T19:24:07.834Z,99.90
2018-09-29T19:26:36.032Z,99.90
2018-09-29T19:29:04.441Z,99.90
2018-09-29T19:31:32.730Z,99.90
2018-09-29T19:34:00.887Z,99.90
2018-09-29T19:36:29.027Z,99.90
2018-09-29T19:38:57.171Z,99.90
2018-09-29T19:41:25.314Z,99.90
2018-09-29T19:43:53.462Z,99.90
2018-09-29T19:46:21.652Z,99.90
2018-09-29T19:48:49.782Z,99.90
2018-09-29T19:51:17.990Z,99.90
2018-09-29T19:53:46.093Z,99.90
2018-09-29T19:56:14.271Z,99.90
2018-09-29T19:58:42.426Z,99.90
2018-09-29T20:01:10.589Z,99.90
2018-09-29T20:03:38.799Z,99.90
2018-09-29T20:06:07.099Z,99.90
2018-09-29T20:08:35.238Z,99.90
2018-09-29T20:11:03.438Z,99.90
2018-09-29T20:13:31.673Z,99.90
2018-09-29T20:15:59.838Z,99.90
2018-09-29T20:18:28.235Z,99.90
2018-09-29T20:20:56.398Z,99.90
2018-09-29T20:23:24.538Z,99.90
2018-09-29T20:25:52.784Z,99.90
2018-09-29T20:28:20.963Z,99.90
2018-09-29T20:30:49.187Z,99.90
2018-09-29T20:33:17.343Z,99.90
2018-09-29T20:35:45.545Z,99.90
2018-09-29T20:38:13.823Z,99.90
2018-09-29T20:40:42.089Z,99.90
2018-09-29T20:43:10.422Z,99.90
2018-09-29T20:45:38.587Z,99.90
2018-09-29T20:48:06.803Z,99.90
2018-09-29T20:50:35.061Z,99.90
2018-09-29T20:53:03.226Z,99.90
2018-09-29T20:55:31.362Z,99.90
2018-09-29T20:57:59.521Z,99.90
2018-09-29T21:00:27.641Z,99.90
2018-09-29T21:02:55.783Z,99.90
2018-09-29T21:05:23.930Z,99.90
2018-09-29T21:07:52.073Z,99.90
2018-09-29T21:10:20.215Z,99.90
2018-09-29T21:12:48.418Z,99.90
2018-09-29T21:15:16.506Z,99.90
2018-09-29T21:17:44.827Z,99.90
2018-09-29T21:20:12.962Z,99.90
2018-09-29T21:22:41.584Z,99.90
2018-09-29T21:25:09.731Z,99.90
2018-09-29T21:27:37.914Z,99.90
2018-09-29T21:30:06.178Z,99.90
2018-09-29T21:32:34.307Z,99.90
2018-09-29T21:35:02.430Z,99.90
2018-09-29T21:37:30.655Z,99.90
2018-09-29T21:39:58.800Z,99.90
2018-09-29T21:42:27.003Z,99.90
2018-09-29T21:44:55.045Z,99.90
2018-09-29T21:47:23.178Z,99.90
2018-09-29T21:49:51.290Z,99.90
2018-09-29T21:52:19.512Z,99.90
2018-09-29T21:54:47.546Z,99.90
2018-09-29T21:57:15.670Z,99.90
2018-09-29T21:59:43.785Z,99.90
2018-09-29T22:02:11.910Z,99.90
2018-09-29T22:04:40.085Z,99.90
2018-09-29T22:07:08.166Z,99.90
2018-09-29T22:09:36.278Z,99.90
2018-09-29T22:12:04.398Z,99.90
2018-09-29T22:14:32.523Z,99.90
2018-09-29T22:17:00.653Z,99.90
2018-09-29T22:19:28.778Z,99.90
2018-09-29T22:21:56.906Z,99.90
2018-09-29T22:24:25.022Z,99.90
2018-09-29T22:26:53.137Z,99.90
2018-09-29T22:29:21.270Z,99.90
2018-09-29T22:31:49.471Z,99.90
2018-09-29T22:34:17.535Z,99.90
2018-09-29T22:36:45.663Z,99.90
2018-09-29T22:39:13.803Z,99.90
2018-09-29T22:41:41.940Z,99.90
2018-09-29T22:44:10.071Z,99.90
2018-09-29T22:46:38.198Z,99.90
2018-09-29T22:49:06.502Z,99.90
2018-09-29T22:51:34.618Z,99.90
2018-09-29T22:54:02.765Z,99.90
2018-09-29T22:56:30.882Z,99.90
2018-09-29T22:58:59.029Z,99.90
2018-09-29T23:01:27.158Z,99.90
2018-09-29T23:03:55.299Z,99.90
2018-09-29T23:06:23.421Z,99.90
2018-09-29T23:08:51.695Z,99.90
2018-09-29T23:11:19.835Z,99.90
2018-09-29T23:13:47.962Z,99.90
2018-09-29T23:16:16.099Z,99.90
2018-09-29T23:18:44.246Z,99.90
2018-09-29T23:21:12.373Z,99.90
2018-09-29T23:23:40.494Z,99.90
2018-09-29T23:26:08.627Z,99.90
2018-09-29T23:28:36.755Z,99.90
2018-09-29T23:31:04.895Z,99.90
2018-09-29T23:33:33.038Z,99.90
2018-09-29T23:36:01.174Z,99.90
2018-09-29T23:38:29.295Z,99.90
2018-09-29T23:40:57.423Z,99.90
2018-09-29T23:43:25.534Z,99.90
2018-09-29T23:45:53.676Z,99.90
2018-09-29T23:48:21.817Z,99.90
2018-09-29T23:50:49.953Z,99.90
2018-09-29T23:53:18.075Z,99.90
2018-09-29T23:55:46.206Z,99.90
2018-09-29T23:58:14.326Z,99.90
